sensor_id;sensor_type;location;lat;lon;timestamp;pressure;altitude;pressure_sealevel;temperature;humidity
12951;BME280;6540;50.858;7.232;2022-12-15T00:00:48;51894.88;;;-142.34;27.29
12951;BME280;6540;50.858;7.232;2022-12-15T00:03:32;51945.31;;;-142.34;26.80
12951;BME280;6540;50.858;7.232;2022-12-15T00:06:16;51917.06;;;-142.34;26.95
12951;BME280;6540;50.858;7.232;2022-12-15T00:09:00;51882.78;;;-142.34;26.69
12951;BME280;6540;50.858;7.232;2022-12-15T00:11:44;51951.38;;;-142.34;26.34
12951;BME280;6540;50.858;7.232;2022-12-15T00:14:28;51919.09;;;-142.34;26.03
12951;BME280;6540;50.858;7.232;2022-12-15T00:17:12;51939.28;;;-142.34;26.87
12951;BME280;6540;50.858;7.232;2022-12-15T00:19:56;51923.13;;;-142.34;27.24
12951;BME280;6540;50.858;7.232;2022-12-15T00:22:40;51947.34;;;-142.34;28.46
12951;BME280;6540;50.858;7.232;2022-12-15T00:25:24;51923.13;;;-142.34;26.27
12951;BME280;6540;50.858;7.232;2022-12-15T00:28:07;51915.06;;;-142.34;25.92
12951;BME280;6540;50.858;7.232;2022-12-15T00:30:51;51927.16;;;-142.34;27.26
12951;BME280;6540;50.858;7.232;2022-12-15T00:33:35;51923.13;;;-142.34;27.34
12951;BME280;6540;50.858;7.232;2022-12-15T00:36:19;51929.19;;;-142.34;26.46
12951;BME280;6540;50.858;7.232;2022-12-15T00:39:03;51927.16;;;-142.34;26.37
12951;BME280;6540;50.858;7.232;2022-12-15T00:41:29;51907.00;;;-142.34;26.41
12951;BME280;6540;50.858;7.232;2022-12-15T00:43:55;51915.06;;;-142.34;26.11
12951;BME280;6540;50.858;7.232;2022-12-15T00:46:20;51941.28;;;-142.34;27.19
12951;BME280;6540;50.858;7.232;2022-12-15T00:49:04;51915.06;;;-142.34;26.46
12951;BME280;6540;50.858;7.232;2022-12-15T00:51:50;51915.06;;;-142.34;25.77
12951;BME280;6540;50.858;7.232;2022-12-15T00:54:34;51953.41;;;-142.34;26.06
12951;BME280;6540;50.858;7.232;2022-12-15T00:57:17;51951.38;;;-142.34;26.11
12951;BME280;6540;50.858;7.232;2022-12-15T01:00:03;51945.31;;;-142.34;25.85
12951;BME280;6540;50.858;7.232;2022-12-15T01:02:47;51943.31;;;-142.34;25.88
12951;BME280;6540;50.858;7.232;2022-12-15T01:05:32;51935.25;;;-142.34;27.65
12951;BME280;6540;50.858;7.232;2022-12-15T01:08:16;51907.00;;;-142.34;27.27
12951;BME280;6540;50.858;7.232;2022-12-15T01:11:00;51907.00;;;-142.34;26.67
12951;BME280;6540;50.858;7.232;2022-12-15T01:13:44;51933.22;;;-142.34;26.39
12951;BME280;6540;50.858;7.232;2022-12-15T01:16:28;51947.34;;;-142.34;25.95
12951;BME280;6540;50.858;7.232;2022-12-15T01:19:11;51900.94;;;-142.34;26.31
12951;BME280;6540;50.858;7.232;2022-12-15T01:21:55;51923.13;;;-142.34;26.29
12951;BME280;6540;50.858;7.232;2022-12-15T01:24:21;51947.34;;;-142.34;25.78
12951;BME280;6540;50.858;7.232;2022-12-15T01:26:46;51959.44;;;-142.34;25.94
12951;BME280;6540;50.858;7.232;2022-12-15T01:29:11;51951.38;;;-142.34;26.83
12951;BME280;6540;50.858;7.232;2022-12-15T01:31:37;51886.81;;;-142.34;26.98
12951;BME280;6540;50.858;7.232;2022-12-15T01:34:02;51925.16;;;-142.34;26.28
12951;BME280;6540;50.858;7.232;2022-12-15T01:36:27;51943.31;;;-142.34;26.01
12951;BME280;6540;50.858;7.232;2022-12-15T01:38:53;51943.31;;;-142.34;25.92
12951;BME280;6540;50.858;7.232;2022-12-15T01:41:18;51898.94;;;-142.34;25.73
12951;BME280;6540;50.858;7.232;2022-12-15T01:43:43;51898.94;;;-142.34;26.05
12951;BME280;6540;50.858;7.232;2022-12-15T01:46:13;51971.53;;;-142.34;25.82
12951;BME280;6540;50.858;7.232;2022-12-15T01:51:14;51959.44;;;-142.34;26.09
12951;BME280;6540;50.858;7.232;2022-12-15T01:54:02;51904.97;;;-142.34;26.56
12951;BME280;6540;50.858;7.232;2022-12-15T01:56:32;51925.16;;;-142.34;26.33
12951;BME280;6540;50.858;7.232;2022-12-15T01:59:00;51945.31;;;-142.34;25.99
12951;BME280;6540;50.858;7.232;2022-12-15T02:01:26;51945.31;;;-142.34;26.07
12951;BME280;6540;50.858;7.232;2022-12-15T02:03:52;51947.34;;;-142.34;26.06
12951;BME280;6540;50.858;7.232;2022-12-15T02:06:18;51931.19;;;-142.34;25.65
12951;BME280;6540;50.858;7.232;2022-12-15T02:08:47;51947.34;;;-142.34;25.70
12951;BME280;6540;50.858;7.232;2022-12-15T02:33:50;51917.06;;;-142.34;26.90
12951;BME280;6540;50.858;7.232;2022-12-15T02:36:26;51894.88;;;-142.34;26.38
12951;BME280;6540;50.858;7.232;2022-12-15T02:38:53;51911.03;;;-142.34;25.84
12951;BME280;6540;50.858;7.232;2022-12-15T02:41:47;51915.06;;;-142.34;27.59
12951;BME280;6540;50.858;7.232;2022-12-15T02:55:36;51933.22;;;-142.34;25.57
12951;BME280;6540;50.858;7.232;2022-12-15T02:58:30;51896.91;;;-142.34;26.15
12951;BME280;6540;50.858;7.232;2022-12-15T03:01:08;51915.06;;;-142.34;25.81
12951;BME280;6540;50.858;7.232;2022-12-15T03:03:36;51931.19;;;-142.34;25.81
12951;BME280;6540;50.858;7.232;2022-12-15T03:06:03;51939.28;;;-142.34;25.77
12951;BME280;6540;50.858;7.232;2022-12-15T03:08:28;51900.94;;;-142.34;26.42
12951;BME280;6540;50.858;7.232;2022-12-15T03:10:55;51947.34;;;-142.34;25.69
12951;BME280;6540;50.858;7.232;2022-12-15T03:13:22;51931.19;;;-142.34;25.78
12951;BME280;6540;50.858;7.232;2022-12-15T03:15:48;51898.94;;;-142.34;26.05
12951;BME280;6540;50.858;7.232;2022-12-15T03:18:13;51915.06;;;-142.34;26.75
12951;BME280;6540;50.858;7.232;2022-12-15T03:20:39;51890.84;;;-142.34;26.10
12951;BME280;6540;50.858;7.232;2022-12-15T03:23:05;51919.09;;;-142.34;25.80
12951;BME280;6540;50.858;7.232;2022-12-15T03:25:31;51975.59;;;-142.34;25.92
12951;BME280;6540;50.858;7.232;2022-12-15T03:27:56;51957.44;;;-142.34;26.01
12951;BME280;6540;50.858;7.232;2022-12-15T03:30:21;51919.09;;;-142.34;25.70
12951;BME280;6540;50.858;7.232;2022-12-15T03:32:47;51900.94;;;-142.34;25.98
12951;BME280;6540;50.858;7.232;2022-12-15T03:35:12;51900.94;;;-142.34;26.10
12951;BME280;6540;50.858;7.232;2022-12-15T03:37:39;51923.13;;;-142.34;26.25
12951;BME280;6540;50.858;7.232;2022-12-15T03:40:05;51931.19;;;-142.34;26.96
12951;BME280;6540;50.858;7.232;2022-12-15T03:42:30;51902.97;;;-142.34;26.54
12951;BME280;6540;50.858;7.232;2022-12-15T03:45:20;51909.00;;;-142.34;26.06
12951;BME280;6540;50.858;7.232;2022-12-15T03:47:46;51886.81;;;-142.34;26.56
12951;BME280;6540;50.858;7.232;2022-12-15T03:50:14;51919.09;;;-142.34;26.37
12951;BME280;6540;50.858;7.232;2022-12-15T03:52:41;51939.28;;;-142.34;26.45
12951;BME280;6540;50.858;7.232;2022-12-15T03:55:10;51931.19;;;-142.34;25.91
12951;BME280;6540;50.858;7.232;2022-12-15T03:57:35;51935.25;;;-142.34;26.17
12951;BME280;6540;50.858;7.232;2022-12-15T04:00:01;51935.25;;;-142.34;26.11
12951;BME280;6540;50.858;7.232;2022-12-15T04:02:26;51941.28;;;-142.34;25.53
12951;BME280;6540;50.858;7.232;2022-12-15T04:04:52;51947.34;;;-142.34;26.60
12951;BME280;6540;50.858;7.232;2022-12-15T04:07:17;51925.16;;;-142.34;26.39
12951;BME280;6540;50.858;7.232;2022-12-15T04:09:42;51963.47;;;-142.34;26.32
12951;BME280;6540;50.858;7.232;2022-12-15T04:12:10;51931.19;;;-142.34;25.88
12951;BME280;6540;50.858;7.232;2022-12-15T04:14:35;51939.28;;;-142.34;25.95
12951;BME280;6540;50.858;7.232;2022-12-15T04:17:09;51943.31;;;-142.34;26.00
12951;BME280;6540;50.858;7.232;2022-12-15T04:19:35;51925.16;;;-142.34;26.00
12951;BME280;6540;50.858;7.232;2022-12-15T04:22:19;51923.13;;;-142.34;26.05
12951;BME280;6540;50.858;7.232;2022-12-15T04:24:45;51959.44;;;-142.34;26.50
12951;BME280;6540;50.858;7.232;2022-12-15T04:27:29;51923.13;;;-142.34;26.54
12951;BME280;6540;50.858;7.232;2022-12-15T04:30:13;51921.13;;;-142.34;27.12
12951;BME280;6540;50.858;7.232;2022-12-15T04:32:57;51888.84;;;-142.34;26.39
12951;BME280;6540;50.858;7.232;2022-12-15T04:35:43;51967.50;;;-142.34;26.24
12951;BME280;6540;50.858;7.232;2022-12-15T04:38:27;51927.16;;;-142.34;26.26
12951;BME280;6540;50.858;7.232;2022-12-15T04:41:12;51929.19;;;-142.34;26.57
12951;BME280;6540;50.858;7.232;2022-12-15T04:43:57;51951.38;;;-142.34;26.19
12951;BME280;6540;50.858;7.232;2022-12-15T04:46:41;51947.34;;;-142.34;26.19
12951;BME280;6540;50.858;7.232;2022-12-15T04:49:25;51947.34;;;-142.34;25.95
12951;BME280;6540;50.858;7.232;2022-12-15T04:52:09;51909.00;;;-142.34;26.46
12951;BME280;6540;50.858;7.232;2022-12-15T04:54:53;51951.38;;;-142.34;28.14
12951;BME280;6540;50.858;7.232;2022-12-15T04:57:37;51931.19;;;-142.34;27.29
12951;BME280;6540;50.858;7.232;2022-12-15T05:00:21;51898.94;;;-142.34;26.71
12951;BME280;6540;50.858;7.232;2022-12-15T05:03:06;51913.03;;;-142.34;26.58
12951;BME280;6540;50.858;7.232;2022-12-15T05:05:51;51963.47;;;-142.34;26.47
12951;BME280;6540;50.858;7.232;2022-12-15T05:08:35;51931.19;;;-142.34;26.64
12951;BME280;6540;50.858;7.232;2022-12-15T05:11:19;51923.13;;;-142.34;26.29
12951;BME280;6540;50.858;7.232;2022-12-15T05:14:03;51963.47;;;-142.34;26.39
12951;BME280;6540;50.858;7.232;2022-12-15T05:16:47;51945.31;;;-142.34;26.32
12951;BME280;6540;50.858;7.232;2022-12-15T05:19:31;51975.59;;;-142.34;26.35
12951;BME280;6540;50.858;7.232;2022-12-15T05:22:15;51937.25;;;-142.34;26.32
12951;BME280;6540;50.858;7.232;2022-12-15T05:24:59;51943.31;;;-142.34;26.31
12951;BME280;6540;50.858;7.232;2022-12-15T05:27:43;51941.28;;;-142.34;27.41
12951;BME280;6540;50.858;7.232;2022-12-15T05:30:27;51965.50;;;-142.34;26.51
12951;BME280;6540;50.858;7.232;2022-12-15T05:33:11;51931.19;;;-142.34;26.83
12951;BME280;6540;50.858;7.232;2022-12-15T05:35:36;51985.66;;;-142.34;26.44
12951;BME280;6540;50.858;7.232;2022-12-15T05:38:04;51939.28;;;-142.34;26.32
12951;BME280;6540;50.858;7.232;2022-12-15T05:40:29;51971.53;;;-142.34;26.56
12951;BME280;6540;50.858;7.232;2022-12-15T05:42:57;51949.34;;;-142.34;26.63
12951;BME280;6540;50.858;7.232;2022-12-15T05:45:23;51985.66;;;-142.34;27.26
12951;BME280;6540;50.858;7.232;2022-12-15T05:47:52;51931.19;;;-142.34;26.54
12951;BME280;6540;50.858;7.232;2022-12-15T05:50:19;51935.25;;;-142.34;27.76
12951;BME280;6540;50.858;7.232;2022-12-15T05:52:45;51917.06;;;-142.34;27.63
12951;BME280;6540;50.858;7.232;2022-12-15T05:55:10;51937.25;;;-142.34;26.75
12951;BME280;6540;50.858;7.232;2022-12-15T05:57:35;51971.53;;;-142.34;26.97
12951;BME280;6540;50.858;7.232;2022-12-15T06:00:02;51919.09;;;-142.34;27.27
12951;BME280;6540;50.858;7.232;2022-12-15T06:02:28;51919.09;;;-142.34;26.58
12951;BME280;6540;50.858;7.232;2022-12-15T06:04:56;51979.63;;;-142.34;26.90
12951;BME280;6540;50.858;7.232;2022-12-15T06:07:22;51993.75;;;-142.34;26.62
12951;BME280;6540;50.858;7.232;2022-12-15T06:09:47;51975.59;;;-142.34;27.68
12951;BME280;6540;50.858;7.232;2022-12-15T06:12:12;51949.34;;;-142.34;28.44
12951;BME280;6540;50.858;7.232;2022-12-15T06:14:38;51959.44;;;-142.34;29.03
12951;BME280;6540;50.858;7.232;2022-12-15T06:17:03;51961.47;;;-142.34;28.75
12951;BME280;6540;50.858;7.232;2022-12-15T06:19:28;51973.56;;;-142.34;28.66
12951;BME280;6540;50.858;7.232;2022-12-15T06:21:54;51919.09;;;-142.34;27.19
12951;BME280;6540;50.858;7.232;2022-12-15T06:24:19;51943.31;;;-142.34;26.54
12951;BME280;6540;50.858;7.232;2022-12-15T06:26:45;51931.19;;;-142.34;28.80
12951;BME280;6540;50.858;7.232;2022-12-15T06:29:11;51951.38;;;-142.34;27.75
12951;BME280;6540;50.858;7.232;2022-12-15T06:31:38;51961.47;;;-142.34;26.72
12951;BME280;6540;50.858;7.232;2022-12-15T06:34:06;51937.25;;;-142.34;26.21
12951;BME280;6540;50.858;7.232;2022-12-15T06:36:32;51975.59;;;-142.34;26.57
12951;BME280;6540;50.858;7.232;2022-12-15T06:38:58;51955.41;;;-142.34;28.32
12951;BME280;6540;50.858;7.232;2022-12-15T06:41:25;51931.19;;;-142.34;28.90
12951;BME280;6540;50.858;7.232;2022-12-15T06:43:54;51983.66;;;-142.34;27.97
12951;BME280;6540;50.858;7.232;2022-12-15T06:46:23;51963.47;;;-142.34;27.21
12951;BME280;6540;50.858;7.232;2022-12-15T06:48:49;51931.19;;;-142.34;27.64
12951;BME280;6540;50.858;7.232;2022-12-15T06:51:15;51971.53;;;-142.34;26.85
12951;BME280;6540;50.858;7.232;2022-12-15T06:53:41;51953.41;;;-142.34;27.75
12951;BME280;6540;50.858;7.232;2022-12-15T06:56:32;51959.44;;;-142.34;26.45
12951;BME280;6540;50.858;7.232;2022-12-15T06:59:00;51955.41;;;-142.34;27.19
12951;BME280;6540;50.858;7.232;2022-12-15T07:01:27;51987.69;;;-142.34;27.05
12951;BME280;6540;50.858;7.232;2022-12-15T07:03:53;51983.66;;;-142.34;28.26
12951;BME280;6540;50.858;7.232;2022-12-15T07:06:19;51987.69;;;-142.34;29.82
12951;BME280;6540;50.858;7.232;2022-12-15T07:08:48;51933.22;;;-142.34;31.51
12951;BME280;6540;50.858;7.232;2022-12-15T07:11:16;51935.25;;;-142.34;30.39
12951;BME280;6540;50.858;7.232;2022-12-15T07:13:41;51925.16;;;-142.34;29.97
12951;BME280;6540;50.858;7.232;2022-12-15T07:16:08;51951.38;;;-142.34;30.66
12951;BME280;6540;50.858;7.232;2022-12-15T07:18:35;51902.97;;;-142.34;32.13
12951;BME280;6540;50.858;7.232;2022-12-15T07:21:04;51915.06;;;-142.34;30.63
12951;BME280;6540;50.858;7.232;2022-12-15T07:23:30;51963.47;;;-142.34;31.23
12951;BME280;6540;50.858;7.232;2022-12-15T07:25:56;51939.28;;;-142.34;30.24
12951;BME280;6540;50.858;7.232;2022-12-15T07:28:21;51947.34;;;-142.34;29.99
12951;BME280;6540;50.858;7.232;2022-12-15T07:30:46;51900.94;;;-142.34;29.94
12951;BME280;6540;50.858;7.232;2022-12-15T07:33:12;51923.13;;;-142.34;29.83
12951;BME280;6540;50.858;7.232;2022-12-15T07:35:37;51921.13;;;-142.34;29.31
12951;BME280;6540;50.858;7.232;2022-12-15T07:38:06;51921.13;;;-142.34;29.07
12951;BME280;6540;50.858;7.232;2022-12-15T07:40:32;51919.09;;;-142.34;27.74
12951;BME280;6540;50.858;7.232;2022-12-15T07:42:57;51971.53;;;-142.34;27.56
12951;BME280;6540;50.858;7.232;2022-12-15T07:45:23;52009.88;;;-142.34;29.20
12951;BME280;6540;50.858;7.232;2022-12-15T07:47:49;51951.38;;;-142.34;30.04
12951;BME280;6540;50.858;7.232;2022-12-15T07:50:16;51971.53;;;-142.34;29.31
12951;BME280;6540;50.858;7.232;2022-12-15T07:52:41;51917.06;;;-142.34;29.35
12951;BME280;6540;50.858;7.232;2022-12-15T07:55:07;51955.41;;;-142.34;28.59
12951;BME280;6540;50.858;7.232;2022-12-15T07:57:33;51949.34;;;-142.34;27.58
12951;BME280;6540;50.858;7.232;2022-12-15T07:59:58;51987.69;;;-142.34;28.02
12951;BME280;6540;50.858;7.232;2022-12-15T08:02:23;51959.44;;;-142.34;28.27
12951;BME280;6540;50.858;7.232;2022-12-15T08:04:50;51985.66;;;-142.34;28.48
12951;BME280;6540;50.858;7.232;2022-12-15T08:07:15;51975.59;;;-142.34;29.55
12951;BME280;6540;50.858;7.232;2022-12-15T08:09:41;51963.47;;;-142.34;30.52
12951;BME280;6540;50.858;7.232;2022-12-15T08:12:06;51977.59;;;-142.34;29.70
12951;BME280;6540;50.858;7.232;2022-12-15T08:14:32;51927.16;;;-142.34;30.88
12951;BME280;6540;50.858;7.232;2022-12-15T08:16:58;51975.59;;;-142.34;30.17
12951;BME280;6540;50.858;7.232;2022-12-15T08:19:23;51927.16;;;-142.34;30.05
12951;BME280;6540;50.858;7.232;2022-12-15T08:21:48;51939.28;;;-142.34;28.96
12951;BME280;6540;50.858;7.232;2022-12-15T08:24:14;51987.69;;;-142.34;28.52
12951;BME280;6540;50.858;7.232;2022-12-15T08:26:42;51951.38;;;-142.34;29.53
12951;BME280;6540;50.858;7.232;2022-12-15T08:29:11;51941.28;;;-142.34;29.55
12951;BME280;6540;50.858;7.232;2022-12-15T08:31:37;51927.16;;;-142.34;30.09
12951;BME280;6540;50.858;7.232;2022-12-15T08:34:04;51959.44;;;-142.34;29.78
12951;BME280;6540;50.858;7.232;2022-12-15T08:36:30;51955.41;;;-142.34;28.53
12951;BME280;6540;50.858;7.232;2022-12-15T08:38:56;51935.25;;;-142.34;29.02
12951;BME280;6540;50.858;7.232;2022-12-15T08:41:24;51979.63;;;-142.34;29.04
12951;BME280;6540;50.858;7.232;2022-12-15T08:43:51;51943.31;;;-142.34;29.85
12951;BME280;6540;50.858;7.232;2022-12-15T08:46:19;51931.19;;;-142.34;28.58
12951;BME280;6540;50.858;7.232;2022-12-15T08:48:45;51955.41;;;-142.34;29.52
12951;BME280;6540;50.858;7.232;2022-12-15T08:51:11;51955.41;;;-142.34;29.87
12951;BME280;6540;50.858;7.232;2022-12-15T08:53:37;51955.41;;;-142.34;30.75
12951;BME280;6540;50.858;7.232;2022-12-15T08:56:11;51923.13;;;-142.34;29.31
12951;BME280;6540;50.858;7.232;2022-12-15T08:58:37;51939.28;;;-142.34;29.92
12951;BME280;6540;50.858;7.232;2022-12-15T09:01:05;51941.28;;;-142.34;28.76
12951;BME280;6540;50.858;7.232;2022-12-15T09:03:32;51933.22;;;-142.34;27.68
12951;BME280;6540;50.858;7.232;2022-12-15T09:06:02;51953.41;;;-142.34;26.96
12951;BME280;6540;50.858;7.232;2022-12-15T09:08:28;51995.75;;;-142.34;28.65
12951;BME280;6540;50.858;7.232;2022-12-15T09:10:56;51961.47;;;-142.34;28.98
12951;BME280;6540;50.858;7.232;2022-12-15T09:13:22;51997.78;;;-142.34;27.54
12951;BME280;6540;50.858;7.232;2022-12-15T09:15:58;52015.94;;;-142.34;28.10
12951;BME280;6540;50.858;7.232;2022-12-15T09:18:23;51963.47;;;-142.34;26.78
12951;BME280;6540;50.858;7.232;2022-12-15T09:20:49;51979.63;;;-142.34;26.63
12951;BME280;6540;50.858;7.232;2022-12-15T09:23:14;52005.84;;;-142.34;27.03
12951;BME280;6540;50.858;7.232;2022-12-15T09:25:39;52013.91;;;-142.34;26.83
12951;BME280;6540;50.858;7.232;2022-12-15T09:28:05;51957.44;;;-142.34;27.75
12951;BME280;6540;50.858;7.232;2022-12-15T09:30:30;51983.66;;;-142.34;28.73
12951;BME280;6540;50.858;7.232;2022-12-15T09:32:55;51971.53;;;-142.34;27.94
12951;BME280;6540;50.858;7.232;2022-12-15T09:35:21;51961.47;;;-142.34;27.58
12951;BME280;6540;50.858;7.232;2022-12-15T09:37:46;51983.66;;;-142.34;26.74
12951;BME280;6540;50.858;7.232;2022-12-15T09:40:12;51963.47;;;-142.34;27.44
12951;BME280;6540;50.858;7.232;2022-12-15T09:42:38;51979.63;;;-142.34;28.84
12951;BME280;6540;50.858;7.232;2022-12-15T09:45:25;51999.78;;;-142.34;27.65
12951;BME280;6540;50.858;7.232;2022-12-15T09:50:27;51987.69;;;-142.34;28.53
12951;BME280;6540;50.858;7.232;2022-12-15T09:52:56;51951.38;;;-142.34;28.37
12951;BME280;6540;50.858;7.232;2022-12-15T09:55:27;51941.28;;;-142.34;26.60
12951;BME280;6540;50.858;7.232;2022-12-15T09:58:07;52011.91;;;-142.34;28.51
12951;BME280;6540;50.858;7.232;2022-12-15T10:00:43;51975.59;;;-142.34;27.21
12951;BME280;6540;50.858;7.232;2022-12-15T10:08:37;51951.38;;;-142.34;27.66
12951;BME280;6540;50.858;7.232;2022-12-15T10:11:26;51973.56;;;-142.34;26.58
12951;BME280;6540;50.858;7.232;2022-12-15T10:19:32;51971.53;;;-142.34;28.44
12951;BME280;6540;50.858;7.232;2022-12-15T10:22:01;51957.44;;;-142.34;27.51
12951;BME280;6540;50.858;7.232;2022-12-15T10:24:28;51959.44;;;-142.34;26.88
12951;BME280;6540;50.858;7.232;2022-12-15T10:27:06;51979.63;;;-142.34;27.06
12951;BME280;6540;50.858;7.232;2022-12-15T10:29:46;51949.34;;;-142.34;26.57
12951;BME280;6540;50.858;7.232;2022-12-15T10:32:19;51963.47;;;-142.34;26.67
12951;BME280;6540;50.858;7.232;2022-12-15T10:34:46;51987.69;;;-142.34;26.75
12951;BME280;6540;50.858;7.232;2022-12-15T10:37:15;52003.81;;;-142.34;26.56
12951;BME280;6540;50.858;7.232;2022-12-15T10:39:43;51983.66;;;-142.34;26.36
12951;BME280;6540;50.858;7.232;2022-12-15T10:42:22;52003.81;;;-142.34;26.56
12951;BME280;6540;50.858;7.232;2022-12-15T10:44:56;51983.66;;;-142.34;27.07
12951;BME280;6540;50.858;7.232;2022-12-15T10:47:24;52011.91;;;-142.34;25.83
12951;BME280;6540;50.858;7.232;2022-12-15T10:49:51;51959.44;;;-142.34;25.78
12951;BME280;6540;50.858;7.232;2022-12-15T10:52:33;52007.84;;;-142.34;26.97
12951;BME280;6540;50.858;7.232;2022-12-15T10:54:59;51983.66;;;-142.34;26.36
12951;BME280;6540;50.858;7.232;2022-12-15T10:57:27;51971.53;;;-142.34;26.46
12951;BME280;6540;50.858;7.232;2022-12-15T10:59:56;51987.69;;;-142.34;26.30
12951;BME280;6540;50.858;7.232;2022-12-15T11:02:28;52026.03;;;-142.34;27.09
12951;BME280;6540;50.858;7.232;2022-12-15T11:05:01;51979.63;;;-142.34;27.73
12951;BME280;6540;50.858;7.232;2022-12-15T11:07:33;51967.50;;;-142.34;29.27
12951;BME280;6540;50.858;7.232;2022-12-15T11:10:00;51965.50;;;-142.34;28.84
12951;BME280;6540;50.858;7.232;2022-12-15T11:12:28;51949.34;;;-142.34;26.69
12951;BME280;6540;50.858;7.232;2022-12-15T11:17:47;51985.66;;;-142.34;26.21
12951;BME280;6540;50.858;7.232;2022-12-15T11:20:22;51999.78;;;-142.34;26.78
12951;BME280;6540;50.858;7.232;2022-12-15T11:23:04;51969.53;;;-142.34;26.38
12951;BME280;6540;50.858;7.232;2022-12-15T11:25:52;51959.44;;;-142.34;26.54
12951;BME280;6540;50.858;7.232;2022-12-15T11:28:30;51975.59;;;-142.34;27.32
12951;BME280;6540;50.858;7.232;2022-12-15T11:33:54;51961.47;;;-142.34;28.38
12951;BME280;6540;50.858;7.232;2022-12-15T11:39:01;51985.66;;;-142.34;26.18
12951;BME280;6540;50.858;7.232;2022-12-15T11:55:04;51967.50;;;-142.34;27.37
12951;BME280;6540;50.858;7.232;2022-12-15T11:58:01;51957.44;;;-142.34;27.40
12951;BME280;6540;50.858;7.232;2022-12-15T12:00:35;51957.44;;;-142.34;27.27
12951;BME280;6540;50.858;7.232;2022-12-15T12:21:48;51939.28;;;-142.34;29.63
12951;BME280;6540;50.858;7.232;2022-12-15T12:26:59;51955.41;;;-142.34;28.56
12951;BME280;6540;50.858;7.232;2022-12-15T12:29:32;51995.75;;;-142.34;29.46
12951;BME280;6540;50.858;7.232;2022-12-15T12:32:21;51931.19;;;-142.34;29.19
12951;BME280;6540;50.858;7.232;2022-12-15T12:35:14;51927.16;;;-142.34;29.21
12951;BME280;6540;50.858;7.232;2022-12-15T12:37:48;51915.06;;;-142.34;27.88
12951;BME280;6540;50.858;7.232;2022-12-15T12:43:07;51997.78;;;-142.34;27.19
12951;BME280;6540;50.858;7.232;2022-12-15T12:45:45;51961.47;;;-142.34;28.73
12951;BME280;6540;50.858;7.232;2022-12-15T12:48:23;51963.47;;;-142.34;27.63
12951;BME280;6540;50.858;7.232;2022-12-15T12:51:06;51991.72;;;-142.34;29.26
12951;BME280;6540;50.858;7.232;2022-12-15T12:53:33;51987.69;;;-142.34;26.68
12951;BME280;6540;50.858;7.232;2022-12-15T12:55:59;52040.13;;;-142.34;28.05
12951;BME280;6540;50.858;7.232;2022-12-15T13:03:39;51971.53;;;-142.34;28.75
12951;BME280;6540;50.858;7.232;2022-12-15T13:11:54;51947.34;;;-142.34;28.46
12951;BME280;6540;50.858;7.232;2022-12-15T13:17:13;51975.59;;;-142.34;27.80
12951;BME280;6540;50.858;7.232;2022-12-15T13:22:28;51943.31;;;-142.34;28.94
12951;BME280;6540;50.858;7.232;2022-12-15T13:24:56;51973.56;;;-142.34;28.69
12951;BME280;6540;50.858;7.232;2022-12-15T13:27:22;51987.69;;;-142.34;28.24
12951;BME280;6540;50.858;7.232;2022-12-15T13:45:48;51955.41;;;-142.34;26.79
12951;BME280;6540;50.858;7.232;2022-12-15T13:51:32;51967.50;;;-142.34;27.29
12951;BME280;6540;50.858;7.232;2022-12-15T13:56:39;51959.44;;;-142.34;28.51
12951;BME280;6540;50.858;7.232;2022-12-15T13:59:21;51975.59;;;-142.34;27.51
12951;BME280;6540;50.858;7.232;2022-12-15T14:01:50;51979.63;;;-142.34;27.05
12951;BME280;6540;50.858;7.232;2022-12-15T14:04:17;51925.16;;;-142.34;27.47
12951;BME280;6540;50.858;7.232;2022-12-15T14:06:51;51993.75;;;-142.34;26.47
12951;BME280;6540;50.858;7.232;2022-12-15T14:09:39;51991.72;;;-142.34;25.54
12951;BME280;6540;50.858;7.232;2022-12-15T14:12:07;51997.78;;;-142.34;25.88
12951;BME280;6540;50.858;7.232;2022-12-15T14:14:42;52015.94;;;-142.34;25.77
12951;BME280;6540;50.858;7.232;2022-12-15T14:17:12;51987.69;;;-142.34;25.36
12951;BME280;6540;50.858;7.232;2022-12-15T14:19:47;51997.78;;;-142.34;25.71
12951;BME280;6540;50.858;7.232;2022-12-15T14:22:31;51975.59;;;-142.34;25.21
12951;BME280;6540;50.858;7.232;2022-12-15T14:25:12;51975.59;;;-142.34;25.66
12951;BME280;6540;50.858;7.232;2022-12-15T14:27:38;51973.56;;;-142.34;26.42
12951;BME280;6540;50.858;7.232;2022-12-15T14:30:29;51963.47;;;-142.34;26.39
12951;BME280;6540;50.858;7.232;2022-12-15T14:35:35;52019.97;;;-142.34;25.67
12951;BME280;6540;50.858;7.232;2022-12-15T14:38:05;51985.66;;;-142.34;25.71
12951;BME280;6540;50.858;7.232;2022-12-15T14:40:34;51971.53;;;-142.34;25.92
12951;BME280;6540;50.858;7.232;2022-12-15T14:43:00;51975.59;;;-142.34;26.30
12951;BME280;6540;50.858;7.232;2022-12-15T14:45:27;51943.31;;;-142.34;26.01
12951;BME280;6540;50.858;7.232;2022-12-15T14:48:05;51967.50;;;-142.34;25.68
12951;BME280;6540;50.858;7.232;2022-12-15T14:50:32;51947.34;;;-142.34;25.97
12951;BME280;6540;50.858;7.232;2022-12-15T14:53:04;51987.69;;;-142.34;25.76
12951;BME280;6540;50.858;7.232;2022-12-15T14:55:36;51985.66;;;-142.34;25.76
12951;BME280;6540;50.858;7.232;2022-12-15T14:58:28;51979.63;;;-142.34;25.78
12951;BME280;6540;50.858;7.232;2022-12-15T15:00:54;51975.59;;;-142.34;25.87
12951;BME280;6540;50.858;7.232;2022-12-15T15:03:24;51965.50;;;-142.34;25.95
12951;BME280;6540;50.858;7.232;2022-12-15T15:05:58;52003.81;;;-142.34;25.79
12951;BME280;6540;50.858;7.232;2022-12-15T15:08:30;51979.63;;;-142.34;26.12
12951;BME280;6540;50.858;7.232;2022-12-15T15:13:44;51993.75;;;-142.34;26.06
12951;BME280;6540;50.858;7.232;2022-12-15T15:16:17;52011.91;;;-142.34;25.92
12951;BME280;6540;50.858;7.232;2022-12-15T15:18:48;51939.28;;;-142.34;26.12
12951;BME280;6540;50.858;7.232;2022-12-15T15:21:18;51991.72;;;-142.34;26.55
12951;BME280;6540;50.858;7.232;2022-12-15T15:23:58;51947.34;;;-142.34;26.05
12951;BME280;6540;50.858;7.232;2022-12-15T15:26:25;51979.63;;;-142.34;26.46
12951;BME280;6540;50.858;7.232;2022-12-15T15:28:50;51963.47;;;-142.34;26.95
12951;BME280;6540;50.858;7.232;2022-12-15T15:31:51;51943.31;;;-142.34;26.04
12951;BME280;6540;50.858;7.232;2022-12-15T15:34:17;51961.47;;;-142.34;26.28